sensor_id;sensor_type;location;lat;lon;timestamp;P1;durP1;ratioP1;P2;durP2;ratioP2
16314;SDS011;8266;52.150;4.768;2023-04-08T00:00:15;21.48;;;16.52;;
16314;SDS011;8266;52.150;4.768;2023-04-08T00:02:44;20.75;;;17.15;;
16314;SDS011;8266;52.150;4.768;2023-04-08T00:05:11;19.70;;;16.48;;
16314;SDS011;8266;52.150;4.768;2023-04-08T00:07:38;21.33;;;17.30;;
16314;SDS011;8266;52.150;4.768;2023-04-08T00:10:06;23.13;;;17.13;;
16314;SDS011;8266;52.150;4.768;2023-04-08T00:12:34;19.42;;;15.23;;
16314;SDS011;8266;52.150;4.768;2023-04-08T00:15:01;21.95;;;16.85;;
16314;SDS011;8266;52.150;4.768;2023-04-08T00:17:28;22.88;;;17.30;;
16314;SDS011;8266;52.150;4.768;2023-04-08T00:19:57;21.08;;;16.75;;
16314;SDS011;8266;52.150;4.768;2023-04-08T00:22:24;20.90;;;16.27;;
16314;SDS011;8266;52.150;4.768;2023-04-08T00:24:51;23.40;;;17.40;;
16314;SDS011;8266;52.150;4.768;2023-04-08T00:27:18;23.10;;;17.60;;
16314;SDS011;8266;52.150;4.768;2023-04-08T00:29:45;23.20;;;18.20;;
16314;SDS011;8266;52.150;4.768;2023-04-08T00:32:12;24.90;;;18.95;;
16314;SDS011;8266;52.150;4.768;2023-04-08T00:34:39;24.05;;;18.65;;
16314;SDS011;8266;52.150;4.768;2023-04-08T00:37:08;22.20;;;17.52;;
16314;SDS011;8266;52.150;4.768;2023-04-08T00:39:36;23.15;;;17.70;;
16314;SDS011;8266;52.150;4.768;2023-04-08T00:42:03;23.95;;;17.98;;
16314;SDS011;8266;52.150;4.768;2023-04-08T00:44:30;24.88;;;17.55;;
16314;SDS011;8266;52.150;4.768;2023-04-08T00:46:57;26.50;;;17.98;;
16314;SDS011;8266;52.150;4.768;2023-04-08T00:49:25;25.35;;;17.70;;
16314;SDS011;8266;52.150;4.768;2023-04-08T00:51:52;23.95;;;17.30;;
16314;SDS011;8266;52.150;4.768;2023-04-08T00:54:21;24.63;;;16.75;;
16314;SDS011;8266;52.150;4.768;2023-04-08T00:56:48;25.25;;;17.80;;
16314;SDS011;8266;52.150;4.768;2023-04-08T00:59:16;18.33;;;14.20;;
16314;SDS011;8266;52.150;4.768;2023-04-08T01:01:46;21.45;;;15.73;;
16314;SDS011;8266;52.150;4.768;2023-04-08T01:04:23;21.80;;;16.45;;
16314;SDS011;8266;52.150;4.768;2023-04-08T01:07:00;22.45;;;17.13;;
16314;SDS011;8266;52.150;4.768;2023-04-08T01:09:37;21.63;;;16.95;;
16314;SDS011;8266;52.150;4.768;2023-04-08T01:12:20;21.60;;;14.43;;
16314;SDS011;8266;52.150;4.768;2023-04-08T01:14:59;21.98;;;15.50;;
16314;SDS011;8266;52.150;4.768;2023-04-08T01:17:30;19.65;;;15.15;;
16314;SDS011;8266;52.150;4.768;2023-04-08T01:19:59;34.80;;;14.40;;
16314;SDS011;8266;52.150;4.768;2023-04-08T01:22:31;20.95;;;15.18;;
16314;SDS011;8266;52.150;4.768;2023-04-08T01:25:08;19.10;;;14.48;;
16314;SDS011;8266;52.150;4.768;2023-04-08T01:27:42;18.58;;;14.52;;
16314;SDS011;8266;52.150;4.768;2023-04-08T01:30:09;18.65;;;13.90;;
16314;SDS011;8266;52.150;4.768;2023-04-08T01:32:39;18.13;;;13.60;;
16314;SDS011;8266;52.150;4.768;2023-04-08T01:35:09;19.05;;;14.75;;
16314;SDS011;8266;52.150;4.768;2023-04-08T01:37:37;19.45;;;14.40;;
16314;SDS011;8266;52.150;4.768;2023-04-08T01:40:05;20.65;;;14.57;;
16314;SDS011;8266;52.150;4.768;2023-04-08T01:42:34;20.00;;;15.38;;
16314;SDS011;8266;52.150;4.768;2023-04-08T01:45:05;21.25;;;15.43;;
16314;SDS011;8266;52.150;4.768;2023-04-08T01:47:34;19.33;;;15.05;;
16314;SDS011;8266;52.150;4.768;2023-04-08T01:50:04;104.53;;;16.85;;
16314;SDS011;8266;52.150;4.768;2023-04-08T01:52:34;80.68;;;14.35;;
16314;SDS011;8266;52.150;4.768;2023-04-08T01:55:04;34.22;;;11.52;;
16314;SDS011;8266;52.150;4.768;2023-04-08T01:57:32;33.97;;;11.95;;
16314;SDS011;8266;52.150;4.768;2023-04-08T02:00:03;17.45;;;13.10;;
16314;SDS011;8266;52.150;4.768;2023-04-08T02:02:34;20.48;;;14.48;;
16314;SDS011;8266;52.150;4.768;2023-04-08T02:05:02;20.88;;;15.50;;
16314;SDS011;8266;52.150;4.768;2023-04-08T02:07:30;24.15;;;16.45;;
16314;SDS011;8266;52.150;4.768;2023-04-08T02:09:57;23.15;;;17.00;;
16314;SDS011;8266;52.150;4.768;2023-04-08T02:12:24;21.70;;;16.63;;
16314;SDS011;8266;52.150;4.768;2023-04-08T02:14:52;23.02;;;16.85;;
16314;SDS011;8266;52.150;4.768;2023-04-08T02:17:24;23.98;;;17.13;;
16314;SDS011;8266;52.150;4.768;2023-04-08T02:19:56;21.52;;;16.90;;
16314;SDS011;8266;52.150;4.768;2023-04-08T02:22:29;23.75;;;16.65;;
16314;SDS011;8266;52.150;4.768;2023-04-08T02:25:02;20.38;;;15.57;;
16314;SDS011;8266;52.150;4.768;2023-04-08T02:27:33;23.83;;;16.38;;
16314;SDS011;8266;52.150;4.768;2023-04-08T02:30:01;21.65;;;16.92;;
16314;SDS011;8266;52.150;4.768;2023-04-08T02:32:31;22.40;;;16.20;;
16314;SDS011;8266;52.150;4.768;2023-04-08T02:35:00;21.40;;;17.00;;
16314;SDS011;8266;52.150;4.768;2023-04-08T02:37:28;21.98;;;16.27;;
16314;SDS011;8266;52.150;4.768;2023-04-08T02:39:55;21.48;;;17.10;;
16314;SDS011;8266;52.150;4.768;2023-04-08T02:42:23;21.52;;;17.08;;
16314;SDS011;8266;52.150;4.768;2023-04-08T02:44:50;24.63;;;17.40;;
16314;SDS011;8266;52.150;4.768;2023-04-08T02:47:17;24.10;;;18.10;;
16314;SDS011;8266;52.150;4.768;2023-04-08T02:49:45;20.80;;;17.35;;
16314;SDS011;8266;52.150;4.768;2023-04-08T02:52:12;23.75;;;18.15;;
16314;SDS011;8266;52.150;4.768;2023-04-08T02:54:39;20.85;;;17.23;;
16314;SDS011;8266;52.150;4.768;2023-04-08T02:57:06;19.85;;;16.75;;
16314;SDS011;8266;52.150;4.768;2023-04-08T02:59:33;22.50;;;17.77;;
16314;SDS011;8266;52.150;4.768;2023-04-08T03:02:01;29.00;;;17.55;;
16314;SDS011;8266;52.150;4.768;2023-04-08T03:04:29;23.30;;;16.25;;
16314;SDS011;8266;52.150;4.768;2023-04-08T03:06:57;20.67;;;17.00;;
16314;SDS011;8266;52.150;4.768;2023-04-08T03:09:24;19.73;;;16.33;;
16314;SDS011;8266;52.150;4.768;2023-04-08T03:11:51;18.75;;;15.73;;
16314;SDS011;8266;52.150;4.768;2023-04-08T03:14:19;23.77;;;17.23;;
16314;SDS011;8266;52.150;4.768;2023-04-08T03:16:46;43.72;;;18.88;;
16314;SDS011;8266;52.150;4.768;2023-04-08T03:19:13;61.33;;;19.05;;
16314;SDS011;8266;52.150;4.768;2023-04-08T03:21:40;88.32;;;19.65;;
16314;SDS011;8266;52.150;4.768;2023-04-08T03:24:09;75.32;;;18.13;;
16314;SDS011;8266;52.150;4.768;2023-04-08T03:26:36;58.72;;;18.10;;
16314;SDS011;8266;52.150;4.768;2023-04-08T03:29:04;51.38;;;16.45;;
16314;SDS011;8266;52.150;4.768;2023-04-08T03:31:32;70.88;;;17.15;;
16314;SDS011;8266;52.150;4.768;2023-04-08T03:33:59;64.82;;;18.25;;
16314;SDS011;8266;52.150;4.768;2023-04-08T03:36:26;40.13;;;17.17;;
16314;SDS011;8266;52.150;4.768;2023-04-08T03:38:53;58.10;;;17.23;;
16314;SDS011;8266;52.150;4.768;2023-04-08T03:41:22;68.78;;;17.63;;
16314;SDS011;8266;52.150;4.768;2023-04-08T03:43:49;67.60;;;17.05;;
16314;SDS011;8266;52.150;4.768;2023-04-08T03:46:16;80.15;;;17.05;;
16314;SDS011;8266;52.150;4.768;2023-04-08T03:48:43;71.60;;;16.77;;
16314;SDS011;8266;52.150;4.768;2023-04-08T03:51:11;95.68;;;17.35;;
16314;SDS011;8266;52.150;4.768;2023-04-08T03:53:38;110.93;;;19.40;;
16314;SDS011;8266;52.150;4.768;2023-04-08T03:56:06;91.15;;;17.33;;
16314;SDS011;8266;52.150;4.768;2023-04-08T03:58:34;104.82;;;17.58;;
16314;SDS011;8266;52.150;4.768;2023-04-08T04:01:01;76.32;;;16.52;;
16314;SDS011;8266;52.150;4.768;2023-04-08T04:03:28;59.03;;;16.25;;
16314;SDS011;8266;52.150;4.768;2023-04-08T04:05:55;77.40;;;17.80;;
16314;SDS011;8266;52.150;4.768;2023-04-08T04:08:23;57.78;;;16.38;;
16314;SDS011;8266;52.150;4.768;2023-04-08T04:10:49;34.22;;;13.90;;
16314;SDS011;8266;52.150;4.768;2023-04-08T04:13:17;60.13;;;15.60;;
16314;SDS011;8266;52.150;4.768;2023-04-08T04:15:45;75.20;;;16.83;;
16314;SDS011;8266;52.150;4.768;2023-04-08T04:18:12;45.20;;;15.88;;
16314;SDS011;8266;52.150;4.768;2023-04-08T04:20:40;72.93;;;18.20;;
16314;SDS011;8266;52.150;4.768;2023-04-08T04:23:07;56.20;;;17.02;;
16314;SDS011;8266;52.150;4.768;2023-04-08T04:25:35;132.65;;;21.50;;
16314;SDS011;8266;52.150;4.768;2023-04-08T04:28:03;50.03;;;17.30;;
16314;SDS011;8266;52.150;4.768;2023-04-08T04:30:30;53.70;;;17.45;;
16314;SDS011;8266;52.150;4.768;2023-04-08T04:32:59;109.85;;;21.95;;
16314;SDS011;8266;52.150;4.768;2023-04-08T04:35:26;41.67;;;17.15;;
16314;SDS011;8266;52.150;4.768;2023-04-08T04:37:53;67.35;;;20.00;;
16314;SDS011;8266;52.150;4.768;2023-04-08T04:40:20;98.57;;;21.05;;
16314;SDS011;8266;52.150;4.768;2023-04-08T04:42:47;93.65;;;20.55;;
16314;SDS011;8266;52.150;4.768;2023-04-08T04:45:14;105.75;;;20.27;;
16314;SDS011;8266;52.150;4.768;2023-04-08T04:47:41;117.78;;;21.10;;
16314;SDS011;8266;52.150;4.768;2023-04-08T04:50:10;71.90;;;19.33;;
16314;SDS011;8266;52.150;4.768;2023-04-08T04:52:37;55.95;;;18.02;;
16314;SDS011;8266;52.150;4.768;2023-04-08T04:55:04;50.20;;;18.27;;
16314;SDS011;8266;52.150;4.768;2023-04-08T04:57:32;69.97;;;17.85;;
16314;SDS011;8266;52.150;4.768;2023-04-08T04:59:59;49.42;;;17.00;;
16314;SDS011;8266;52.150;4.768;2023-04-08T05:02:26;112.65;;;21.40;;
16314;SDS011;8266;52.150;4.768;2023-04-08T05:04:56;78.20;;;17.77;;
16314;SDS011;8266;52.150;4.768;2023-04-08T05:07:30;44.85;;;13.23;;
16314;SDS011;8266;52.150;4.768;2023-04-08T05:09:57;28.70;;;12.70;;
16314;SDS011;8266;52.150;4.768;2023-04-08T05:12:24;38.90;;;12.40;;
16314;SDS011;8266;52.150;4.768;2023-04-08T05:14:52;39.88;;;13.13;;
16314;SDS011;8266;52.150;4.768;2023-04-08T05:17:19;32.67;;;12.27;;
16314;SDS011;8266;52.150;4.768;2023-04-08T05:19:46;45.33;;;12.40;;
16314;SDS011;8266;52.150;4.768;2023-04-08T05:22:14;51.63;;;13.93;;
16314;SDS011;8266;52.150;4.768;2023-04-08T05:24:42;40.65;;;13.93;;
16314;SDS011;8266;52.150;4.768;2023-04-08T05:27:09;38.40;;;13.18;;
16314;SDS011;8266;52.150;4.768;2023-04-08T05:29:36;54.20;;;14.23;;
16314;SDS011;8266;52.150;4.768;2023-04-08T05:32:03;44.03;;;15.10;;
16314;SDS011;8266;52.150;4.768;2023-04-08T05:34:30;50.35;;;14.82;;
16314;SDS011;8266;52.150;4.768;2023-04-08T05:36:57;31.40;;;14.20;;
16314;SDS011;8266;52.150;4.768;2023-04-08T05:39:24;35.45;;;13.60;;
16314;SDS011;8266;52.150;4.768;2023-04-08T05:41:53;35.28;;;13.45;;
16314;SDS011;8266;52.150;4.768;2023-04-08T05:44:20;26.90;;;11.90;;
16314;SDS011;8266;52.150;4.768;2023-04-08T05:46:47;33.28;;;12.52;;
16314;SDS011;8266;52.150;4.768;2023-04-08T05:49:14;27.88;;;12.10;;
16314;SDS011;8266;52.150;4.768;2023-04-08T05:51:41;35.63;;;12.48;;
16314;SDS011;8266;52.150;4.768;2023-04-08T05:54:08;25.83;;;11.00;;
16314;SDS011;8266;52.150;4.768;2023-04-08T05:56:35;35.05;;;11.95;;
16314;SDS011;8266;52.150;4.768;2023-04-08T05:59:04;55.55;;;12.15;;
16314;SDS011;8266;52.150;4.768;2023-04-08T06:01:31;33.58;;;11.57;;
16314;SDS011;8266;52.150;4.768;2023-04-08T06:03:58;44.75;;;13.07;;
16314;SDS011;8266;52.150;4.768;2023-04-08T06:06:25;48.30;;;11.52;;
16314;SDS011;8266;52.150;4.768;2023-04-08T06:08:53;37.30;;;10.80;;
16314;SDS011;8266;52.150;4.768;2023-04-08T06:11:22;36.25;;;12.88;;
16314;SDS011;8266;52.150;4.768;2023-04-08T06:13:50;39.85;;;11.63;;
16314;SDS011;8266;52.150;4.768;2023-04-08T06:16:25;39.40;;;11.80;;
16314;SDS011;8266;52.150;4.768;2023-04-08T06:18:52;53.88;;;13.48;;
16314;SDS011;8266;52.150;4.768;2023-04-08T06:21:20;29.08;;;11.32;;
16314;SDS011;8266;52.150;4.768;2023-04-08T06:23:47;27.10;;;11.15;;
16314;SDS011;8266;52.150;4.768;2023-04-08T06:26:14;29.85;;;11.23;;
16314;SDS011;8266;52.150;4.768;2023-04-08T06:28:42;33.47;;;11.75;;
16314;SDS011;8266;52.150;4.768;2023-04-08T06:31:09;40.70;;;11.55;;
16314;SDS011;8266;52.150;4.768;2023-04-08T06:33:38;45.33;;;12.73;;
16314;SDS011;8266;52.150;4.768;2023-04-08T06:36:08;38.42;;;12.60;;
16314;SDS011;8266;52.150;4.768;2023-04-08T06:38:37;46.63;;;11.10;;
16314;SDS011;8266;52.150;4.768;2023-04-08T06:41:08;47.88;;;11.07;;
16314;SDS011;8266;52.150;4.768;2023-04-08T06:43:35;51.58;;;12.27;;
16314;SDS011;8266;52.150;4.768;2023-04-08T06:46:02;35.58;;;10.77;;
16314;SDS011;8266;52.150;4.768;2023-04-08T06:48:30;42.30;;;11.52;;
16314;SDS011;8266;52.150;4.768;2023-04-08T06:51:01;37.22;;;11.52;;
16314;SDS011;8266;52.150;4.768;2023-04-08T06:53:28;32.95;;;12.30;;
16314;SDS011;8266;52.150;4.768;2023-04-08T06:56:00;23.83;;;10.80;;
16314;SDS011;8266;52.150;4.768;2023-04-08T06:58:27;29.20;;;10.50;;
16314;SDS011;8266;52.150;4.768;2023-04-08T07:00:57;30.70;;;10.43;;
16314;SDS011;8266;52.150;4.768;2023-04-08T07:03:30;23.10;;;10.35;;
16314;SDS011;8266;52.150;4.768;2023-04-08T07:06:05;22.63;;;11.18;;
16314;SDS011;8266;52.150;4.768;2023-04-08T07:08:37;22.92;;;9.90;;
16314;SDS011;8266;52.150;4.768;2023-04-08T07:11:19;17.88;;;11.07;;
16314;SDS011;8266;52.150;4.768;2023-04-08T07:13:46;24.48;;;10.55;;
16314;SDS011;8266;52.150;4.768;2023-04-08T07:16:13;31.95;;;10.20;;
16314;SDS011;8266;52.150;4.768;2023-04-08T07:18:40;30.73;;;10.18;;
16314;SDS011;8266;52.150;4.768;2023-04-08T07:21:09;15.40;;;8.82;;
16314;SDS011;8266;52.150;4.768;2023-04-08T07:23:36;26.55;;;9.45;;
16314;SDS011;8266;52.150;4.768;2023-04-08T07:26:04;12.38;;;8.90;;
16314;SDS011;8266;52.150;4.768;2023-04-08T07:28:31;14.40;;;10.75;;
16314;SDS011;8266;52.150;4.768;2023-04-08T07:31:07;24.77;;;10.80;;
16314;SDS011;8266;52.150;4.768;2023-04-08T07:33:38;21.77;;;10.43;;
16314;SDS011;8266;52.150;4.768;2023-04-08T07:36:05;24.52;;;10.82;;
16314;SDS011;8266;52.150;4.768;2023-04-08T07:38:35;23.75;;;14.10;;
16314;SDS011;8266;52.150;4.768;2023-04-08T07:41:02;24.67;;;13.65;;
16314;SDS011;8266;52.150;4.768;2023-04-08T07:43:30;34.17;;;14.45;;
16314;SDS011;8266;52.150;4.768;2023-04-08T07:46:01;20.85;;;14.90;;
16314;SDS011;8266;52.150;4.768;2023-04-08T07:48:28;21.88;;;14.82;;
16314;SDS011;8266;52.150;4.768;2023-04-08T07:50:56;21.77;;;14.65;;
16314;SDS011;8266;52.150;4.768;2023-04-08T07:53:23;21.38;;;16.55;;
16314;SDS011;8266;52.150;4.768;2023-04-08T07:55:53;20.85;;;16.35;;
16314;SDS011;8266;52.150;4.768;2023-04-08T07:58:20;19.77;;;17.67;;
16314;SDS011;8266;52.150;4.768;2023-04-08T08:00:49;20.25;;;18.15;;
16314;SDS011;8266;52.150;4.768;2023-04-08T08:03:16;18.77;;;16.77;;
16314;SDS011;8266;52.150;4.768;2023-04-08T08:05:43;22.23;;;18.75;;
16314;SDS011;8266;52.150;4.768;2023-04-08T08:08:10;20.52;;;18.42;;
16314;SDS011;8266;52.150;4.768;2023-04-08T08:10:37;19.75;;;17.63;;
16314;SDS011;8266;52.150;4.768;2023-04-08T08:13:06;20.98;;;18.75;;
16314;SDS011;8266;52.150;4.768;2023-04-08T08:15:33;20.90;;;18.80;;
16314;SDS011;8266;52.150;4.768;2023-04-08T08:18:00;20.92;;;18.73;;
16314;SDS011;8266;52.150;4.768;2023-04-08T08:20:27;20.23;;;18.05;;
16314;SDS011;8266;52.150;4.768;2023-04-08T08:22:55;19.63;;;17.73;;
16314;SDS011;8266;52.150;4.768;2023-04-08T08:25:22;17.38;;;15.75;;
16314;SDS011;8266;52.150;4.768;2023-04-08T08:27:52;15.70;;;14.20;;
16314;SDS011;8266;52.150;4.768;2023-04-08T08:30:21;15.93;;;14.43;;
16314;SDS011;8266;52.150;4.768;2023-04-08T08:32:48;13.27;;;12.00;;
16314;SDS011;8266;52.150;4.768;2023-04-08T08:35:16;12.27;;;11.27;;
16314;SDS011;8266;52.150;4.768;2023-04-08T08:37:43;11.80;;;10.80;;
16314;SDS011;8266;52.150;4.768;2023-04-08T08:40:13;10.68;;;9.70;;
16314;SDS011;8266;52.150;4.768;2023-04-08T08:42:40;10.00;;;9.20;;
16314;SDS011;8266;52.150;4.768;2023-04-08T08:45:08;8.32;;;7.63;;
16314;SDS011;8266;52.150;4.768;2023-04-08T08:47:37;9.38;;;8.57;;
16314;SDS011;8266;52.150;4.768;2023-04-08T08:50:05;9.38;;;8.57;;
16314;SDS011;8266;52.150;4.768;2023-04-08T08:52:32;9.18;;;8.40;;
16314;SDS011;8266;52.150;4.768;2023-04-08T08:54:59;8.57;;;7.85;;
16314;SDS011;8266;52.150;4.768;2023-04-08T08:57:26;8.65;;;7.85;;
16314;SDS011;8266;52.150;4.768;2023-04-08T08:59:54;9.55;;;8.65;;
16314;SDS011;8266;52.150;4.768;2023-04-08T09:02:25;9.10;;;8.40;;
16314;SDS011;8266;52.150;4.768;2023-04-08T09:04:59;8.95;;;8.15;;
16314;SDS011;8266;52.150;4.768;2023-04-08T09:07:28;8.30;;;7.45;;
16314;SDS011;8266;52.150;4.768;2023-04-08T09:09:57;8.60;;;7.80;;
16314;SDS011;8266;52.150;4.768;2023-04-08T09:12:25;8.98;;;8.07;;
16314;SDS011;8266;52.150;4.768;2023-04-08T09:15:01;8.02;;;7.32;;
16314;SDS011;8266;52.150;4.768;2023-04-08T09:17:33;8.15;;;7.45;;
16314;SDS011;8266;52.150;4.768;2023-04-08T09:20:09;8.07;;;7.25;;
16314;SDS011;8266;52.150;4.768;2023-04-08T09:22:53;7.90;;;7.15;;
16314;SDS011;8266;52.150;4.768;2023-04-08T09:25:22;7.72;;;7.00;;
16314;SDS011;8266;52.150;4.768;2023-04-08T09:27:50;8.15;;;7.28;;
16314;SDS011;8266;52.150;4.768;2023-04-08T09:30:18;8.07;;;7.40;;
16314;SDS011;8266;52.150;4.768;2023-04-08T09:32:47;7.45;;;6.85;;
16314;SDS011;8266;52.150;4.768;2023-04-08T09:35:17;8.30;;;7.60;;
16314;SDS011;8266;52.150;4.768;2023-04-08T09:37:44;7.50;;;6.90;;
16314;SDS011;8266;52.150;4.768;2023-04-08T09:40:12;8.00;;;7.30;;
16314;SDS011;8266;52.150;4.768;2023-04-08T09:42:43;7.90;;;7.20;;
16314;SDS011;8266;52.150;4.768;2023-04-08T09:45:12;8.38;;;7.65;;
16314;SDS011;8266;52.150;4.768;2023-04-08T09:47:41;7.95;;;7.28;;
16314;SDS011;8266;52.150;4.768;2023-04-08T09:50:17;8.25;;;7.55;;
16314;SDS011;8266;52.150;4.768;2023-04-08T09:52:49;7.35;;;6.72;;
16314;SDS011;8266;52.150;4.768;2023-04-08T09:55:24;8.82;;;7.75;;
16314;SDS011;8266;52.150;4.768;2023-04-08T09:57:57;7.80;;;6.95;;
16314;SDS011;8266;52.150;4.768;2023-04-08T10:00:28;7.57;;;6.88;;
16314;SDS011;8266;52.150;4.768;2023-04-08T10:03:00;7.75;;;7.10;;
16314;SDS011;8266;52.150;4.768;2023-04-08T10:05:33;7.72;;;7.03;;
16314;SDS011;8266;52.150;4.768;2023-04-08T10:08:04;7.28;;;6.68;;
16314;SDS011;8266;52.150;4.768;2023-04-08T10:10:32;7.97;;;7.28;;
16314;SDS011;8266;52.150;4.768;2023-04-08T10:13:01;7.38;;;6.68;;
16314;SDS011;8266;52.150;4.768;2023-04-08T10:15:29;7.93;;;7.20;;
16314;SDS011;8266;52.150;4.768;2023-04-08T10:20:58;7.70;;;6.55;;
16314;SDS011;8266;52.150;4.768;2023-04-08T10:26:30;7.53;;;6.93;;
16314;SDS011;8266;52.150;4.768;2023-04-08T10:31:56;7.32;;;6.63;;
16314;SDS011;8266;52.150;4.768;2023-04-08T10:34:23;8.93;;;8.13;;
16314;SDS011;8266;52.150;4.768;2023-04-08T10:36:53;8.32;;;7.53;;
16314;SDS011;8266;52.150;4.768;2023-04-08T10:39:24;6.90;;;6.30;;
16314;SDS011;8266;52.150;4.768;2023-04-08T10:41:52;7.43;;;6.72;;
16314;SDS011;8266;52.150;4.768;2023-04-08T10:44:20;7.72;;;6.97;;
16314;SDS011;8266;52.150;4.768;2023-04-08T10:46:48;8.18;;;7.38;;
16314;SDS011;8266;52.150;4.768;2023-04-08T10:49:17;7.30;;;6.70;;
16314;SDS011;8266;52.150;4.768;2023-04-08T10:51:46;7.35;;;6.75;;
16314;SDS011;8266;52.150;4.768;2023-04-08T10:54:15;7.07;;;6.47;;
16314;SDS011;8266;52.150;4.768;2023-04-08T10:56:44;7.43;;;6.82;;
16314;SDS011;8266;52.150;4.768;2023-04-08T10:59:12;7.13;;;6.47;;
16314;SDS011;8266;52.150;4.768;2023-04-08T11:01:43;6.90;;;6.30;;
16314;SDS011;8266;52.150;4.768;2023-04-08T11:04:11;7.55;;;6.85;;
16314;SDS011;8266;52.150;4.768;2023-04-08T11:06:40;7.22;;;6.53;;
16314;SDS011;8266;52.150;4.768;2023-04-08T11:09:08;8.05;;;7.25;;
16314;SDS011;8266;52.150;4.768;2023-04-08T11:11:37;7.78;;;7.05;;
16314;SDS011;8266;52.150;4.768;2023-04-08T11:14:06;7.47;;;6.78;;
16314;SDS011;8266;52.150;4.768;2023-04-08T11:16:33;7.78;;;7.03;;
16314;SDS011;8266;52.150;4.768;2023-04-08T11:19:02;7.45;;;6.65;;
16314;SDS011;8266;52.150;4.768;2023-04-08T11:21:30;7.50;;;6.70;;
16314;SDS011;8266;52.150;4.768;2023-04-08T11:24:00;6.57;;;5.97;;
16314;SDS011;8266;52.150;4.768;2023-04-08T11:26:31;6.40;;;5.80;;
16314;SDS011;8266;52.150;4.768;2023-04-08T11:29:00;6.68;;;6.05;;
16314;SDS011;8266;52.150;4.768;2023-04-08T11:31:27;7.63;;;6.82;;
16314;SDS011;8266;52.150;4.768;2023-04-08T11:33:56;7.15;;;6.45;;
16314;SDS011;8266;52.150;4.768;2023-04-08T11:36:23;7.75;;;7.05;;
16314;SDS011;8266;52.150;4.768;2023-04-08T11:38:52;7.28;;;6.55;;
16314;SDS011;8266;52.150;4.768;2023-04-08T11:41:19;6.90;;;6.25;;
16314;SDS011;8266;52.150;4.768;2023-04-08T11:43:50;6.22;;;5.72;;
16314;SDS011;8266;52.150;4.768;2023-04-08T11:46:22;6.50;;;5.88;;
16314;SDS011;8266;52.150;4.768;2023-04-08T11:48:59;7.07;;;6.38;;
16314;SDS011;8266;52.150;4.768;2023-04-08T11:51:27;8.13;;;7.35;;
16314;SDS011;8266;52.150;4.768;2023-04-08T11:53:55;7.22;;;6.53;;
16314;SDS011;8266;52.150;4.768;2023-04-08T11:56:22;7.15;;;6.55;;
16314;SDS011;8266;52.150;4.768;2023-04-08T11:58:50;7.55;;;6.75;;
16314;SDS011;8266;52.150;4.768;2023-04-08T12:01:18;7.75;;;6.13;;
16314;SDS011;8266;52.150;4.768;2023-04-08T12:03:57;6.53;;;5.93;;
16314;SDS011;8266;52.150;4.768;2023-04-08T12:06:26;5.95;;;5.45;;
16314;SDS011;8266;52.150;4.768;2023-04-08T12:08:54;6.18;;;5.57;;
16314;SDS011;8266;52.150;4.768;2023-04-08T12:11:22;6.55;;;5.95;;
16314;SDS011;8266;52.150;4.768;2023-04-08T12:13:50;7.97;;;7.05;;
16314;SDS011;8266;52.150;4.768;2023-04-08T12:16:17;7.07;;;6.47;;
16314;SDS011;8266;52.150;4.768;2023-04-08T12:18:45;7.78;;;7.03;;
16314;SDS011;8266;52.150;4.768;2023-04-08T12:21:14;6.90;;;6.30;;
16314;SDS011;8266;52.150;4.768;2023-04-08T12:23:41;9.07;;;7.13;;
16314;SDS011;8266;52.150;4.768;2023-04-08T12:26:08;6.80;;;6.15;;
16314;SDS011;8266;52.150;4.768;2023-04-08T12:28:35;6.93;;;6.30;;
16314;SDS011;8266;52.150;4.768;2023-04-08T12:31:03;6.35;;;5.75;;
16314;SDS011;8266;52.150;4.768;2023-04-08T12:33:33;8.85;;;6.88;;
16314;SDS011;8266;52.150;4.768;2023-04-08T12:36:00;8.43;;;7.35;;
16314;SDS011;8266;52.150;4.768;2023-04-08T12:38:28;9.02;;;8.13;;
16314;SDS011;8266;52.150;4.768;2023-04-08T12:40:55;8.02;;;7.30;;
16314;SDS011;8266;52.150;4.768;2023-04-08T12:43:22;8.10;;;7.30;;
16314;SDS011;8266;52.150;4.768;2023-04-08T12:45:50;7.10;;;6.20;;
16314;SDS011;8266;52.150;4.768;2023-04-08T12:48:17;6.78;;;6.07;;
16314;SDS011;8266;52.150;4.768;2023-04-08T12:50:44;6.70;;;6.07;;
16314;SDS011;8266;52.150;4.768;2023-04-08T12:53:11;6.30;;;5.70;;
16314;SDS011;8266;52.150;4.768;2023-04-08T12:55:39;7.55;;;5.82;;
16314;SDS011;8266;52.150;4.768;2023-04-08T12:58:07;6.00;;;5.30;;
16314;SDS011;8266;52.150;4.768;2023-04-08T13:00:35;6.93;;;5.20;;
16314;SDS011;8266;52.150;4.768;2023-04-08T13:03:03;7.00;;;5.47;;
16314;SDS011;8266;52.150;4.768;2023-04-08T13:05:33;5.97;;;4.90;;
16314;SDS011;8266;52.150;4.768;2023-04-08T13:08:00;6.40;;;5.15;;
16314;SDS011;8266;52.150;4.768;2023-04-08T13:10:27;6.82;;;5.45;;
16314;SDS011;8266;52.150;4.768;2023-04-08T13:12:56;6.22;;;5.20;;
16314;SDS011;8266;52.150;4.768;2023-04-08T13:15:23;7.25;;;5.13;;
16314;SDS011;8266;52.150;4.768;2023-04-08T13:17:50;5.80;;;5.22;;
16314;SDS011;8266;52.150;4.768;2023-04-08T13:20:18;6.47;;;5.55;;
16314;SDS011;8266;52.150;4.768;2023-04-08T13:22:49;6.68;;;5.03;;
16314;SDS011;8266;52.150;4.768;2023-04-08T13:25:16;6.35;;;5.43;;
16314;SDS011;8266;52.150;4.768;2023-04-08T13:27:42;6.80;;;5.53;;
16314;SDS011;8266;52.150;4.768;2023-04-08T13:30:11;5.88;;;4.55;;
16314;SDS011;8266;52.150;4.768;2023-04-08T13:32:38;6.28;;;4.93;;
16314;SDS011;8266;52.150;4.768;2023-04-08T13:35:06;6.55;;;5.28;;
16314;SDS011;8266;52.150;4.768;2023-04-08T13:37:33;6.85;;;5.40;;
16314;SDS011;8266;52.150;4.768;2023-04-08T13:40:00;6.85;;;5.03;;
16314;SDS011;8266;52.150;4.768;2023-04-08T13:42:27;7.35;;;5.63;;
16314;SDS011;8266;52.150;4.768;2023-04-08T13:44:55;6.20;;;5.35;;
16314;SDS011;8266;52.150;4.768;2023-04-08T13:47:24;6.80;;;5.20;;
16314;SDS011;8266;52.150;4.768;2023-04-08T13:49:52;6.90;;;5.78;;
16314;SDS011;8266;52.150;4.768;2023-04-08T13:52:19;7.82;;;5.78;;
16314;SDS011;8266;52.150;4.768;2023-04-08T13:54:46;7.53;;;5.70;;
16314;SDS011;8266;52.150;4.768;2023-04-08T13:57:13;6.35;;;5.32;;
16314;SDS011;8266;52.150;4.768;2023-04-08T13:59:40;6.05;;;5.00;;
16314;SDS011;8266;52.150;4.768;2023-04-08T14:02:07;8.20;;;5.28;;
16314;SDS011;8266;52.150;4.768;2023-04-08T14:04:36;5.47;;;4.60;;
16314;SDS011;8266;52.150;4.768;2023-04-08T14:07:03;6.68;;;5.57;;
16314;SDS011;8266;52.150;4.768;2023-04-08T14:09:31;6.78;;;5.53;;
16314;SDS011;8266;52.150;4.768;2023-04-08T14:11:57;6.10;;;4.65;;
16314;SDS011;8266;52.150;4.768;2023-04-08T14:14:24;6.30;;;5.40;;
16314;SDS011;8266;52.150;4.768;2023-04-08T14:16:51;5.63;;;5.07;;
16314;SDS011;8266;52.150;4.768;2023-04-08T14:19:18;7.82;;;5.00;;
16314;SDS011;8266;52.150;4.768;2023-04-08T14:21:47;6.32;;;4.78;;
16314;SDS011;8266;52.150;4.768;2023-04-08T14:24:14;5.28;;;4.63;;
16314;SDS011;8266;52.150;4.768;2023-04-08T14:26:41;4.97;;;4.47;;
16314;SDS011;8266;52.150;4.768;2023-04-08T14:29:09;4.97;;;4.47;;
16314;SDS011;8266;52.150;4.768;2023-04-08T14:31:36;5.32;;;4.80;;
16314;SDS011;8266;52.150;4.768;2023-04-08T14:34:04;5.88;;;5.05;;
16314;SDS011;8266;52.150;4.768;2023-04-08T14:36:31;5.88;;;5.28;;
16314;SDS011;8266;52.150;4.768;2023-04-08T14:38:59;6.15;;;5.53;;
16314;SDS011;8266;52.150;4.768;2023-04-08T14:41:27;5.80;;;5.03;;
16314;SDS011;8266;52.150;4.768;2023-04-08T14:43:54;6.35;;;5.15;;
16314;SDS011;8266;52.150;4.768;2023-04-08T14:46:21;6.53;;;5.88;;
16314;SDS011;8266;52.150;4.768;2023-04-08T14:48:51;8.63;;;6.97;;
16314;SDS011;8266;52.150;4.768;2023-04-08T14:51:18;6.28;;;5.47;;
16314;SDS011;8266;52.150;4.768;2023-04-08T14:53:45;5.93;;;5.20;;
16314;SDS011;8266;52.150;4.768;2023-04-08T14:56:13;6.53;;;5.82;;
16314;SDS011;8266;52.150;4.768;2023-04-08T14:58:40;6.45;;;5.82;;
16314;SDS011;8266;52.150;4.768;2023-04-08T15:01:07;7.43;;;5.30;;